createdAt,value
2019-05-19T00:02:21.410Z,9.91
2019-05-19T00:04:48.704Z,10.00
2019-05-19T00:07:16.013Z,10.10
2019-05-19T00:09:43.257Z,9.92
2019-05-19T00:12:10.761Z,9.79
2019-05-19T00:14:38.019Z,9.71
2019-05-19T00:17:05.355Z,9.62
2019-05-19T00:19:32.756Z,9.66
2019-05-19T00:22:00.060Z,9.66
2019-05-19T00:24:27.281Z,9.58
2019-05-19T00:26:54.741Z,9.57
2019-05-19T00:29:22.080Z,9.68
2019-05-19T00:31:49.411Z,9.69
2019-05-19T00:34:16.653Z,9.63
2019-05-19T00:36:43.973Z,9.55
2019-05-19T00:39:11.189Z,9.60
2019-05-19T00:41:38.467Z,9.57
2019-05-19T00:44:05.751Z,9.47
2019-05-19T00:46:33.192Z,9.43
2019-05-19T00:49:00.545Z,9.47
2019-05-19T00:51:27.813Z,9.37
2019-05-19T00:53:55.044Z,9.32
2019-05-19T00:56:22.520Z,9.18
2019-05-19T00:58:49.880Z,9.04
2019-05-19T01:01:17.134Z,8.99
2019-05-19T01:03:44.409Z,9.23
2019-05-19T01:06:11.685Z,9.26
2019-05-19T01:08:38.973Z,9.17
2019-05-19T01:11:06.286Z,9.17
2019-05-19T01:13:33.562Z,9.04
2019-05-19T01:16:00.911Z,9.05
2019-05-19T01:18:28.323Z,9.03
2019-05-19T01:20:55.716Z,9.01
2019-05-19T01:23:24.242Z,9.02
2019-05-19T01:25:51.514Z,9.05
2019-05-19T01:28:18.779Z,9.05
2019-05-19T01:30:46.073Z,9.01
2019-05-19T01:33:14.413Z,9.08
2019-05-19T01:35:41.716Z,9.11
2019-05-19T01:38:09.081Z,9.03
2019-05-19T01:40:36.449Z,9.01
2019-05-19T01:43:03.738Z,9.05
2019-05-19T01:45:31.159Z,9.01
2019-05-19T01:47:58.391Z,8.84
2019-05-19T01:50:26.776Z,9.10
2019-05-19T01:52:55.002Z,9.15
2019-05-19T01:55:23.315Z,9.03
2019-05-19T01:57:50.695Z,8.98
2019-05-19T02:00:18.083Z,9.11
2019-05-19T02:02:45.393Z,9.12
2019-05-19T02:05:13.067Z,9.10
2019-05-19T02:07:40.450Z,8.95
2019-05-19T02:10:08.620Z,8.94
2019-05-19T02:12:35.944Z,8.90
2019-05-19T02:15:03.560Z,8.80
2019-05-19T02:17:31.911Z,8.87
2019-05-19T02:19:59.216Z,8.75
2019-05-19T02:22:26.636Z,8.81
2019-05-19T02:24:54.058Z,8.84
2019-05-19T02:27:21.328Z,8.86
2019-05-19T02:29:48.555Z,9.00
2019-05-19T02:32:15.826Z,9.03
2019-05-19T02:34:43.092Z,8.91
2019-05-19T02:37:10.329Z,8.85
2019-05-19T02:39:37.600Z,8.87
2019-05-19T02:42:04.965Z,8.88
2019-05-19T02:44:33.794Z,8.90
2019-05-19T02:47:01.825Z,8.91
2019-05-19T02:49:30.137Z,8.94
2019-05-19T02:51:58.467Z,8.93
2019-05-19T02:56:42.606Z,9.02
2019-05-19T02:59:09.886Z,8.95
2019-05-19T03:01:56.720Z,8.93
2019-05-19T03:04:24.013Z,8.92
2019-05-19T03:06:52.539Z,9.02
2019-05-19T03:09:20.035Z,9.11
2019-05-19T03:11:47.250Z,8.94
2019-05-19T03:14:14.608Z,8.86
2019-05-19T03:16:41.867Z,8.85
2019-05-19T03:19:09.143Z,8.89
2019-05-19T03:21:36.510Z,8.86
2019-05-19T03:24:03.812Z,8.72
2019-05-19T03:26:31.052Z,8.71
2019-05-19T03:28:58.342Z,8.70
2019-05-19T03:31:32.849Z,8.68
2019-05-19T03:34:00.070Z,8.57
2019-05-19T03:36:27.381Z,8.56
2019-05-19T03:38:54.789Z,8.53
2019-05-19T03:41:22.035Z,8.53
2019-05-19T03:43:50.256Z,8.59
2019-05-19T03:46:17.583Z,8.60
2019-05-19T03:48:44.870Z,8.83
2019-05-19T03:51:29.202Z,8.86
2019-05-19T03:53:41.336Z,8.83
2019-05-19T03:56:08.662Z,8.87
2019-05-19T03:58:36.113Z,8.77
2019-05-19T04:01:03.466Z,8.87
2019-05-19T04:03:30.919Z,8.89
2019-05-19T04:05:58.388Z,8.94
2019-05-19T04:08:25.828Z,8.94
2019-05-19T04:10:53.157Z,8.85
2019-05-19T04:13:20.613Z,8.90
2019-05-19T04:15:48.916Z,8.98
2019-05-19T04:18:16.442Z,9.03
2019-05-19T04:20:43.825Z,9.16
2019-05-19T04:23:11.131Z,9.27
2019-05-19T04:25:38.680Z,9.40
2019-05-19T04:28:05.928Z,9.49
2019-05-19T04:30:33.293Z,9.65
2019-05-19T04:33:00.690Z,9.91
2019-05-19T04:35:27.965Z,10.03
2019-05-19T04:37:55.312Z,10.18
2019-05-19T04:40:22.589Z,10.26
2019-05-19T04:42:49.933Z,10.36
2019-05-19T04:45:17.184Z,10.52
2019-05-19T04:47:44.474Z,10.73
2019-05-19T04:50:11.870Z,10.92
2019-05-19T04:52:39.110Z,11.06
2019-05-19T04:55:06.569Z,11.28
2019-05-19T04:57:35.100Z,11.52
2019-05-19T05:00:03.154Z,11.80
2019-05-19T05:02:31.955Z,12.13
2019-05-19T05:04:59.434Z,12.43
2019-05-19T05:07:26.746Z,12.66
2019-05-19T05:09:54.047Z,12.91
2019-05-19T05:12:21.253Z,13.17
2019-05-19T05:14:49.535Z,13.40
2019-05-19T05:17:16.894Z,13.53
2019-05-19T05:19:44.143Z,13.57
2019-05-19T05:22:21.819Z,13.67
2019-05-19T05:24:40.699Z,13.79
2019-05-19T05:27:08.160Z,13.99
2019-05-19T05:29:35.591Z,14.11
2019-05-19T05:32:03.054Z,14.20
2019-05-19T05:34:30.402Z,14.42
2019-05-19T05:36:58.021Z,14.81
2019-05-19T05:39:25.559Z,15.17
2019-05-19T05:41:53.045Z,15.67
2019-05-19T05:44:20.442Z,16.04
2019-05-19T05:46:47.807Z,16.32
2019-05-19T05:49:15.113Z,16.67
2019-05-19T05:51:43.398Z,17.10
2019-05-19T05:54:10.707Z,17.53
2019-05-19T05:56:38.030Z,17.81
2019-05-19T05:59:05.377Z,17.98
2019-05-19T06:01:32.653Z,17.89
2019-05-19T06:03:59.935Z,18.19
2019-05-19T06:08:41.006Z,18.60
2019-05-19T06:11:08.271Z,18.82
2019-05-19T06:13:35.518Z,19.01
2019-05-19T06:16:03.932Z,19.44
2019-05-19T06:18:32.235Z,19.96
2019-05-19T06:20:59.458Z,20.38
2019-05-19T06:23:26.690Z,20.75
2019-05-19T06:25:54.082Z,20.87
2019-05-19T06:28:21.412Z,20.83
2019-05-19T06:30:48.784Z,20.63
2019-05-19T06:33:16.060Z,20.43
2019-05-19T06:35:43.540Z,20.40
2019-05-19T06:38:10.789Z,20.31
2019-05-19T06:40:38.473Z,20.36
2019-05-19T06:43:05.823Z,20.34
2019-05-19T06:45:42.570Z,20.27
2019-05-19T06:48:10.644Z,20.59
2019-05-19T06:50:40.810Z,21.27
2019-05-19T06:53:13.843Z,21.99
2019-05-19T06:55:36.943Z,22.61
2019-05-19T06:58:04.341Z,22.95
2019-05-19T07:00:31.743Z,23.00
2019-05-19T07:02:59.246Z,23.39
2019-05-19T07:05:26.617Z,23.70
2019-05-19T07:07:53.935Z,23.91
2019-05-19T07:10:21.438Z,24.13
2019-05-19T07:12:48.923Z,24.16
2019-05-19T07:15:16.918Z,24.17
2019-05-19T07:17:44.319Z,24.18
2019-05-19T07:20:12.271Z,24.18
2019-05-19T07:22:39.528Z,23.87
2019-05-19T07:25:06.864Z,23.92
2019-05-19T07:27:34.433Z,23.98
2019-05-19T07:30:01.850Z,24.08
2019-05-19T07:32:29.557Z,23.88
2019-05-19T07:34:56.970Z,23.97
2019-05-19T07:37:24.526Z,23.97
2019-05-19T07:39:51.951Z,24.14
2019-05-19T07:42:19.472Z,24.42
2019-05-19T07:44:46.876Z,24.61
2019-05-19T07:47:14.501Z,24.79
2019-05-19T07:49:41.995Z,24.58
2019-05-19T07:52:09.474Z,24.50
2019-05-19T07:54:36.804Z,24.88
2019-05-19T07:57:04.195Z,25.20
2019-05-19T07:59:32.578Z,25.53
2019-05-19T08:01:59.999Z,25.81
2019-05-19T08:04:27.487Z,25.93
2019-05-19T08:06:55.572Z,25.97
2019-05-19T08:09:23.032Z,25.92
2019-05-19T08:11:50.481Z,25.98
2019-05-19T08:14:18.006Z,26.05
2019-05-19T08:16:45.400Z,26.06
2019-05-19T08:19:12.676Z,25.64
2019-05-19T08:21:40.019Z,25.88
2019-05-19T08:24:07.299Z,25.82
2019-05-19T08:26:34.877Z,26.27
2019-05-19T08:29:02.196Z,26.27
2019-05-19T08:31:29.661Z,26.37
2019-05-19T08:33:57.308Z,26.51
2019-05-19T08:36:24.735Z,26.85
2019-05-19T08:38:53.283Z,27.10
2019-05-19T08:41:20.585Z,27.12
2019-05-19T08:43:47.878Z,26.89
2019-05-19T08:46:15.193Z,27.04
2019-05-19T08:48:42.562Z,27.03
2019-05-19T08:51:09.900Z,27.33
2019-05-19T08:53:37.640Z,27.54
2019-05-19T08:56:05.186Z,27.42
2019-05-19T08:58:32.583Z,27.62
2019-05-19T09:01:00.035Z,27.82
2019-05-19T09:03:28.846Z,27.97
2019-05-19T09:05:56.699Z,28.23
2019-05-19T09:08:24.187Z,28.31
2019-05-19T09:10:51.828Z,28.47
2019-05-19T09:13:19.197Z,28.83
2019-05-19T09:15:46.672Z,28.76
2019-05-19T09:18:14.083Z,28.69
2019-05-19T09:20:41.520Z,28.76
2019-05-19T09:23:08.885Z,28.31
2019-05-19T09:25:36.197Z,28.17
2019-05-19T09:28:03.881Z,28.15
2019-05-19T09:30:32.277Z,27.90
2019-05-19T09:32:59.706Z,28.08
2019-05-19T09:35:27.195Z,28.19
2019-05-19T09:37:54.517Z,28.65
2019-05-19T09:40:22.351Z,28.98
2019-05-19T09:42:49.722Z,28.82
2019-05-19T09:45:17.129Z,28.88
2019-05-19T09:47:44.468Z,28.62
2019-05-19T09:50:11.944Z,28.72
2019-05-19T09:52:40.996Z,29.03
2019-05-19T09:55:09.060Z,29.29
2019-05-19T09:57:36.751Z,29.42
2019-05-19T10:00:04.605Z,29.46
2019-05-19T10:02:33.200Z,30.05
2019-05-19T10:05:00.580Z,30.18
2019-05-19T10:07:28.201Z,29.49
2019-05-19T10:10:00.408Z,29.80
2019-05-19T10:12:30.240Z,30.44
2019-05-19T10:14:57.677Z,30.60
2019-05-19T10:17:25.302Z,30.24
2019-05-19T10:19:52.697Z,30.12
2019-05-19T10:22:20.374Z,30.59
2019-05-19T10:24:59.627Z,30.17
2019-05-19T10:27:17.414Z,30.75
2019-05-19T10:29:44.921Z,31.20
2019-05-19T10:32:12.619Z,31.18
2019-05-19T10:34:41.093Z,31.47
2019-05-19T10:37:08.576Z,31.58
2019-05-19T10:39:35.995Z,32.07
2019-05-19T10:42:03.548Z,32.08
2019-05-19T10:44:30.991Z,31.81
2019-05-19T10:46:58.546Z,31.62
2019-05-19T10:49:26.087Z,31.93
2019-05-19T10:51:53.582Z,31.86
2019-05-19T10:54:21.090Z,32.13
2019-05-19T10:56:48.638Z,32.32
2019-05-19T10:59:16.371Z,31.98
2019-05-19T11:01:44.000Z,32.26
2019-05-19T11:04:12.355Z,32.19
2019-05-19T11:06:41.255Z,32.11
2019-05-19T11:09:09.646Z,32.62
2019-05-19T11:11:37.416Z,33.37
2019-05-19T11:14:04.925Z,33.47
2019-05-19T11:16:32.358Z,34.10
2019-05-19T11:19:02.018Z,34.23
2019-05-19T11:21:29.615Z,34.02
2019-05-19T11:23:57.964Z,33.89
2019-05-19T11:26:25.200Z,33.51
2019-05-19T11:28:52.611Z,33.52
2019-05-19T11:31:20.101Z,34.13
2019-05-19T11:33:47.972Z,34.11
2019-05-19T11:36:15.277Z,33.92
2019-05-19T11:38:42.541Z,33.66
2019-05-19T11:41:09.812Z,32.56
2019-05-19T11:43:37.239Z,31.58
2019-05-19T11:49:31.168Z,30.81
2019-05-19T11:51:59.850Z,31.29
2019-05-19T11:54:27.347Z,32.38
2019-05-19T11:56:55.772Z,33.04
2019-05-19T11:59:23.130Z,33.31
2019-05-19T12:01:50.547Z,33.22
2019-05-19T12:04:17.821Z,34.23
2019-05-19T12:06:45.378Z,35.11
2019-05-19T12:09:12.812Z,35.17
2019-05-19T12:11:40.125Z,34.86
2019-05-19T12:14:07.526Z,34.53
2019-05-19T12:16:34.861Z,34.75
2019-05-19T12:19:02.153Z,34.69
2019-05-19T12:21:30.534Z,34.04
2019-05-19T12:23:57.812Z,33.33
2019-05-19T12:26:25.055Z,33.31
2019-05-19T12:28:52.458Z,33.48
2019-05-19T12:31:19.723Z,33.99
2019-05-19T12:33:51.861Z,34.31
2019-05-19T12:36:18.401Z,34.83
2019-05-19T12:38:45.753Z,35.17
2019-05-19T12:41:13.000Z,36.00
2019-05-19T12:43:40.211Z,35.92
2019-05-19T12:46:16.070Z,36.54
2019-05-19T12:48:36.667Z,35.95
2019-05-19T12:51:04.097Z,36.12
2019-05-19T12:53:31.455Z,36.19
2019-05-19T12:55:58.860Z,36.30
2019-05-19T12:58:26.234Z,36.07
2019-05-19T13:00:53.465Z,34.92
2019-05-19T13:03:20.801Z,33.87
2019-05-19T13:05:48.175Z,32.74
2019-05-19T13:08:15.409Z,33.46
2019-05-19T13:10:42.683Z,34.20
2019-05-19T13:13:10.054Z,34.57
2019-05-19T13:15:37.448Z,35.51
2019-05-19T13:18:04.748Z,36.26
2019-05-19T13:20:32.630Z,36.92
2019-05-19T13:23:00.010Z,37.44
2019-05-19T13:25:27.260Z,36.23
2019-05-19T13:27:54.899Z,35.09
2019-05-19T13:30:22.162Z,33.95
2019-05-19T13:32:49.422Z,32.84
2019-05-19T13:35:16.799Z,31.47
2019-05-19T13:37:44.978Z,30.44
2019-05-19T13:40:12.617Z,29.84
2019-05-19T13:42:39.998Z,29.46
2019-05-19T13:45:07.444Z,28.95
2019-05-19T13:47:35.125Z,28.74
2019-05-19T13:50:02.408Z,28.43
2019-05-19T13:52:30.648Z,28.63
2019-05-19T13:54:57.945Z,28.96
2019-05-19T13:57:25.208Z,29.23
2019-05-19T13:59:52.514Z,29.66
2019-05-19T14:02:20.165Z,29.43
2019-05-19T14:04:47.441Z,29.61
2019-05-19T14:07:14.804Z,29.28
2019-05-19T14:09:42.122Z,29.31
2019-05-19T14:12:09.486Z,29.26
2019-05-19T14:14:36.714Z,29.48
2019-05-19T14:17:04.071Z,29.62
2019-05-19T14:19:31.427Z,29.86
2019-05-19T14:21:58.742Z,30.11
2019-05-19T14:24:26.002Z,30.74
2019-05-19T14:26:53.298Z,31.47
2019-05-19T14:29:20.552Z,31.51
2019-05-19T14:31:47.840Z,31.56
2019-05-19T14:34:15.057Z,31.38
2019-05-19T14:36:42.616Z,31.21
2019-05-19T14:39:10.096Z,31.04
2019-05-19T14:41:42.107Z,31.01
2019-05-19T14:44:09.499Z,31.02
2019-05-19T14:46:36.921Z,31.62
2019-05-19T14:49:04.293Z,32.28
2019-05-19T14:51:31.630Z,32.25
2019-05-19T14:53:58.918Z,32.07
2019-05-19T14:56:26.201Z,31.76
2019-05-19T14:58:53.479Z,31.49
2019-05-19T15:01:20.774Z,31.00
2019-05-19T15:03:49.527Z,30.71
2019-05-19T15:06:18.100Z,30.47
2019-05-19T15:08:49.091Z,30.01
2019-05-19T15:11:17.752Z,29.89
2019-05-19T15:13:45.232Z,29.42
2019-05-19T15:16:12.586Z,29.27
2019-05-19T15:18:40.413Z,29.18
2019-05-19T15:21:07.698Z,29.02
2019-05-19T15:23:34.971Z,28.86
2019-05-19T15:26:02.344Z,27.63
2019-05-19T15:28:29.589Z,27.55
2019-05-19T15:30:56.885Z,27.94
2019-05-19T15:33:24.201Z,28.12
2019-05-19T15:35:51.551Z,29.26
2019-05-19T15:38:18.843Z,28.56
2019-05-19T15:40:46.089Z,28.02
2019-05-19T15:43:13.352Z,29.20
2019-05-19T15:45:40.711Z,29.29
2019-05-19T15:48:08.106Z,28.75
2019-05-19T15:50:35.425Z,27.74
2019-05-19T15:53:02.728Z,26.13
2019-05-19T15:55:30.798Z,24.25
2019-05-19T15:57:58.270Z,24.25
2019-05-19T16:00:25.760Z,23.49
2019-05-19T16:02:53.135Z,23.35
2019-05-19T16:05:20.615Z,22.93
2019-05-19T16:07:48.036Z,22.57
2019-05-19T16:10:15.553Z,22.52
2019-05-19T16:12:43.033Z,22.32
2019-05-19T16:15:10.502Z,22.12
2019-05-19T16:17:37.983Z,22.05
2019-05-19T16:20:05.454Z,21.84
2019-05-19T16:22:32.707Z,21.95
2019-05-19T16:25:00.342Z,22.12
2019-05-19T16:27:27.699Z,22.80
2019-05-19T16:29:54.994Z,23.85
2019-05-19T16:32:22.564Z,23.87
2019-05-19T16:34:49.882Z,23.66
2019-05-19T16:37:17.215Z,24.23
2019-05-19T16:39:44.711Z,24.39
2019-05-19T16:42:12.385Z,24.68
2019-05-19T16:44:39.963Z,24.88
2019-05-19T16:47:07.297Z,25.63
2019-05-19T16:49:34.673Z,26.25
2019-05-19T16:52:02.130Z,25.78
2019-05-19T16:54:33.752Z,25.24
2019-05-19T16:57:01.127Z,25.24
2019-05-19T16:59:30.521Z,24.82
2019-05-19T17:01:58.612Z,24.27
2019-05-19T17:04:26.978Z,23.60
2019-05-19T17:06:55.411Z,23.55
2019-05-19T17:09:22.911Z,23.14
2019-05-19T17:11:50.265Z,23.22
2019-05-19T17:14:17.541Z,23.10
2019-05-19T17:16:44.926Z,22.85
2019-05-19T17:19:12.242Z,22.93
2019-05-19T17:21:39.515Z,22.94
2019-05-19T17:24:06.981Z,23.45
2019-05-19T17:26:34.539Z,23.70
2019-05-19T17:29:02.041Z,24.44
2019-05-19T17:31:29.689Z,25.01
2019-05-19T17:33:57.225Z,25.43
2019-05-19T17:36:27.379Z,25.41
2019-05-19T17:38:53.793Z,24.91
2019-05-19T17:41:21.325Z,24.69
2019-05-19T17:43:48.694Z,24.29
2019-05-19T17:46:15.916Z,24.24
2019-05-19T17:48:43.705Z,23.71
2019-05-19T17:51:11.257Z,23.29
2019-05-19T17:53:38.702Z,23.08
2019-05-19T17:56:05.941Z,23.12
2019-05-19T17:58:33.323Z,23.24
2019-05-19T18:01:00.735Z,23.09
2019-05-19T18:03:28.135Z,23.18
2019-05-19T18:05:55.698Z,23.37
2019-05-19T18:08:23.039Z,23.57
2019-05-19T18:10:50.424Z,23.51
2019-05-19T18:13:17.857Z,23.56
2019-05-19T18:15:45.537Z,23.45
2019-05-19T18:18:13.033Z,22.97
2019-05-19T18:20:40.416Z,22.63
2019-05-19T18:23:07.713Z,22.73
2019-05-19T18:25:35.088Z,22.29
2019-05-19T18:28:02.391Z,22.08
2019-05-19T18:30:29.619Z,21.96
2019-05-19T18:32:57.026Z,22.00
2019-05-19T18:35:24.360Z,22.02
2019-05-19T18:37:51.957Z,21.98
2019-05-19T18:40:19.654Z,21.58
2019-05-19T18:42:47.080Z,21.28
2019-05-19T18:45:14.491Z,21.04
2019-05-19T18:47:41.755Z,21.16
2019-05-19T18:50:09.117Z,20.82
2019-05-19T18:52:36.350Z,20.46
2019-05-19T18:55:04.095Z,20.37
2019-05-19T18:57:32.482Z,20.41
2019-05-19T18:59:59.845Z,20.20
2019-05-19T19:02:27.135Z,20.41
2019-05-19T19:04:54.577Z,20.47
2019-05-19T19:07:24.331Z,20.36
2019-05-19T19:09:52.012Z,20.22
2019-05-19T19:12:19.820Z,20.15
2019-05-19T19:14:47.200Z,20.02
2019-05-19T19:17:14.467Z,19.92
2019-05-19T19:19:41.757Z,19.62
2019-05-19T19:22:09.105Z,19.03
2019-05-19T19:24:38.545Z,18.86
2019-05-19T19:27:05.687Z,19.29
2019-05-19T19:29:32.960Z,19.40
2019-05-19T19:32:00.480Z,19.37
2019-05-19T19:34:28.211Z,19.29
2019-05-19T19:36:59.244Z,19.26
2019-05-19T19:39:30.023Z,19.20
2019-05-19T19:41:57.611Z,18.92
2019-05-19T19:44:27.965Z,18.58
2019-05-19T19:46:57.408Z,18.41
2019-05-19T19:49:24.849Z,18.56
2019-05-19T19:51:53.339Z,18.35
2019-05-19T19:54:26.771Z,18.36
2019-05-19T19:57:00.503Z,18.42
2019-05-19T19:59:32.057Z,18.11
2019-05-19T20:01:59.492Z,18.09
2019-05-19T20:04:26.981Z,18.00
2019-05-19T20:06:54.390Z,18.06
2019-05-19T20:09:21.928Z,17.93
2019-05-19T20:11:49.214Z,17.76
2019-05-19T20:14:16.557Z,17.08
2019-05-19T20:16:43.875Z,17.22
2019-05-19T20:19:11.341Z,17.17
2019-05-19T20:21:38.580Z,17.24
2019-05-19T20:24:05.953Z,17.21
2019-05-19T20:26:33.318Z,17.19
2019-05-19T20:29:00.696Z,17.35
2019-05-19T20:31:27.975Z,17.10
2019-05-19T20:33:56.384Z,16.99
2019-05-19T20:36:23.726Z,16.77
2019-05-19T20:38:51.103Z,16.66
2019-05-19T20:41:18.371Z,16.67
2019-05-19T20:43:45.645Z,16.75
2019-05-19T20:46:12.989Z,16.80
2019-05-19T20:48:40.242Z,16.84
2019-05-19T20:51:07.700Z,16.89
2019-05-19T20:53:35.040Z,16.53
2019-05-19T20:56:02.619Z,16.41
2019-05-19T20:58:29.994Z,16.40
2019-05-19T21:00:57.261Z,16.52
2019-05-19T21:03:25.640Z,16.45
2019-05-19T21:05:52.962Z,16.45
2019-05-19T21:08:20.248Z,16.46
2019-05-19T21:10:47.508Z,16.35
2019-05-19T21:13:15.011Z,16.24
2019-05-19T21:15:42.415Z,16.17
2019-05-19T21:18:09.722Z,16.24
2019-05-19T21:20:37.084Z,16.20
2019-05-19T21:23:04.532Z,16.24
2019-05-19T21:25:31.871Z,16.15
2019-05-19T21:27:59.159Z,16.15
2019-05-19T21:30:26.422Z,16.06
2019-05-19T21:32:53.839Z,16.14
2019-05-19T21:35:21.098Z,16.07
2019-05-19T21:37:48.354Z,15.65
2019-05-19T21:40:15.627Z,15.75
2019-05-19T21:45:08.869Z,15.61
2019-05-19T21:47:36.201Z,15.38
2019-05-19T21:50:04.406Z,15.28
2019-05-19T21:52:31.761Z,15.24
2019-05-19T21:54:59.087Z,15.05
2019-05-19T21:57:26.413Z,14.96
2019-05-19T21:59:53.925Z,14.84
2019-05-19T22:02:21.486Z,14.76
2019-05-19T22:04:48.867Z,14.81
2019-05-19T22:07:25.100Z,14.85
2019-05-19T22:09:52.389Z,14.79
2019-05-19T22:12:19.850Z,14.82
2019-05-19T22:14:47.181Z,14.79
2019-05-19T22:17:14.470Z,14.48
2019-05-19T22:19:41.781Z,14.60
2019-05-19T22:22:09.050Z,14.60
2019-05-19T22:24:36.462Z,14.74
2019-05-19T22:27:03.847Z,14.72
2019-05-19T22:29:31.168Z,14.64
2019-05-19T22:31:58.401Z,14.80
2019-05-19T22:34:25.755Z,14.62
2019-05-19T22:36:53.083Z,14.60
2019-05-19T22:39:20.416Z,14.50
2019-05-19T22:41:47.630Z,14.52
2019-05-19T22:44:16.124Z,14.48
2019-05-19T22:46:43.490Z,14.45
2019-05-19T22:49:10.893Z,14.43
2019-05-19T22:51:38.268Z,14.40
2019-05-19T22:54:05.665Z,14.35
2019-05-19T22:56:32.973Z,14.41
2019-05-19T22:59:01.177Z,14.36
2019-05-19T23:01:28.856Z,14.29
2019-05-19T23:03:57.427Z,14.26
2019-05-19T23:06:24.967Z,14.32
2019-05-19T23:08:52.326Z,14.31
2019-05-19T23:11:19.703Z,14.21
2019-05-19T23:13:47.967Z,14.24
2019-05-19T23:16:15.200Z,14.14
2019-05-19T23:18:42.507Z,14.08
2019-05-19T23:21:09.741Z,14.04
2019-05-19T23:23:37.098Z,13.91
2019-05-19T23:26:04.394Z,13.98
2019-05-19T23:28:31.714Z,13.89
2019-05-19T23:30:58.995Z,13.78
2019-05-19T23:33:26.245Z,13.77
2019-05-19T23:35:53.540Z,13.69
2019-05-19T23:40:41.455Z,13.75
2019-05-19T23:43:08.803Z,13.67
2019-05-19T23:45:36.067Z,13.62
2019-05-19T23:48:03.356Z,13.49
2019-05-19T23:50:30.602Z,13.37
2019-05-19T23:52:57.980Z,13.26
2019-05-19T23:55:25.241Z,13.16
2019-05-19T23:57:52.545Z,13.08
